createdAt,value
2022-12-16T00:02:29.115Z,243.02913
2022-12-16T00:07:30.807Z,227.87097
2022-12-16T00:12:32.737Z,226.56881
2022-12-16T00:17:34.291Z,229.18519
2022-12-16T00:22:35.849Z,234.56604
2022-12-16T00:27:37.606Z,215.36564
2022-12-16T00:32:39.382Z,205.01695
2022-12-16T00:37:41.059Z,199.60166
2022-12-16T00:42:43.749Z,186.51969
2022-12-16T00:47:45.252Z,190.4
2022-12-16T00:52:46.892Z,190.4
2022-12-16T00:57:48.665Z,175.57895
2022-12-16T01:02:50.301Z,176.45283
2022-12-16T01:07:52.483Z,194.4065
2022-12-16T01:12:55.157Z,193.39271
2022-12-16T01:17:56.884Z,181.83784
2022-12-16T01:22:58.449Z,182.75969
2022-12-16T01:28:00.168Z,165.58273
2022-12-16T01:33:01.993Z,151.40741
2022-12-16T01:38:03.568Z,159.38462
2022-12-16T01:43:06.043Z,164
2022-12-16T01:48:07.599Z,172.14815
2022-12-16T01:53:09.882Z,193.39271
2022-12-16T01:58:11.901Z,185.56863
2022-12-16T02:03:13.636Z,186.51969
2022-12-16T02:08:15.244Z,174.71161
2022-12-16T02:13:16.899Z,188.44444
2022-12-16T02:18:18.736Z,169.64103
2022-12-16T02:23:20.664Z,182.75969
2022-12-16T02:28:22.839Z,174.71161
2022-12-16T02:33:24.666Z,182.75969
2022-12-16T02:38:26.600Z,174.71161
2022-12-16T02:43:28.634Z,180.92308
2022-12-16T02:48:30.630Z,172.99628
2022-12-16T02:53:32.608Z,178.22053
2022-12-16T02:58:34.792Z,180.01533
2022-12-16T03:03:37.115Z,166.38267
2022-12-16T03:08:38.940Z,171.30627
2022-12-16T03:13:40.863Z,164
2022-12-16T03:18:42.809Z,164
2022-12-16T03:23:44.698Z,157.14879
2022-12-16T03:28:46.698Z,157.14879
2022-12-16T03:33:48.312Z,158.63415
2022-12-16T03:38:50.251Z,152.81356
2022-12-16T03:43:52.043Z,147.30033
2022-12-16T03:48:53.633Z,138.32177
2022-12-16T03:53:55.227Z,148.65116
2022-12-16T03:58:56.748Z,165.58273
2022-12-16T04:03:58.594Z,184.625
2022-12-16T04:09:00.176Z,163.21708
2022-12-16T04:14:02.378Z,174.71161
2022-12-16T04:19:04.152Z,203.91561
2022-12-16T04:24:05.917Z,206.12766
2022-12-16T04:29:07.906Z,200.66667
2022-12-16T04:34:09.757Z,193.39271
2022-12-16T04:39:11.555Z,185.56863
2022-12-16T04:44:13.608Z,200.66667
2022-12-16T04:49:15.627Z,258.28571
2022-12-16T04:54:17.667Z,187.47826
2022-12-16T04:59:19.694Z,230.51163
2022-12-16T05:04:21.763Z,240.15385
2022-12-16T05:09:23.880Z,237.33333
2022-12-16T05:14:26.042Z,241.58454
2022-12-16T05:19:31.623Z,269.92593
2022-12-16T05:24:33.601Z,227.87097
2022-12-16T05:29:35.215Z,244.4878
2022-12-16T05:34:36.705Z,258.28571
2022-12-16T05:39:38.208Z,199.60166
2022-12-16T05:44:40.139Z,243.02913
2022-12-16T05:49:41.624Z,243.02913
2022-12-16T05:54:43.103Z,268.21053
2022-12-16T05:59:44.899Z,308.49704
2022-12-16T06:04:46.393Z,245.96078
2022-12-16T06:09:53.132Z,229.18519
2022-12-16T06:14:58.405Z,306.35294
2022-12-16T06:19:59.942Z,244.4878
2022-12-16T06:25:01.650Z,294
2022-12-16T06:30:03.227Z,326.6087
2022-12-16T06:35:04.754Z,280.61202
2022-12-16T06:40:06.268Z,324.24691
2022-12-16T06:45:08.080Z,349.26316
2022-12-16T06:50:09.648Z,390.37681
2022-12-16T06:55:11.178Z,393.63504
2022-12-16T07:00:12.905Z,365.91781
2022-12-16T07:05:14.384Z,421.51938
2022-12-16T07:10:15.830Z,390.37681
2022-12-16T07:15:17.522Z,400.2963
2022-12-16T07:20:19.323Z,410.66667
2022-12-16T07:25:20.858Z,374.76923
2022-12-16T07:30:22.686Z,429.03937
2022-12-16T07:35:24.161Z,466.0339
2022-12-16T07:40:25.953Z,498.95495
2022-12-16T07:45:27.864Z,613.56522
2022-12-16T07:50:29.428Z,504
2022-12-16T07:55:30.922Z,390.37681
2022-12-16T08:00:32.432Z,579.05155
2022-12-16T08:05:34.107Z,606.36559
2022-12-16T08:10:35.662Z,863.40299
2022-12-16T08:15:37.547Z,636.13483
2022-12-16T08:20:39.070Z,606.36559
2022-12-16T08:25:40.560Z,560
2022-12-16T08:30:42.343Z,863.40299
2022-12-16T08:35:43.974Z,668.70588
2022-12-16T08:40:45.461Z,1064
2022-12-16T08:45:47.517Z,695.21951
2022-12-16T08:50:49.091Z,723.74684
2022-12-16T08:55:50.718Z,566.22222
2022-12-16T09:01:01.702Z,723.74684
2022-12-16T09:06:06.672Z,677.33333
2022-12-16T09:11:08.501Z,1084.74074
2022-12-16T09:16:15.722Z,686.16867
2022-12-16T09:21:19.728Z,906.5
2022-12-16T09:26:21.315Z,891.69231
2022-12-16T09:31:23.334Z,714
2022-12-16T09:36:25.001Z,799.55556
2022-12-16T09:41:26.445Z,877.33333
2022-12-16T09:46:29.021Z,1064
2022-12-16T09:51:30.880Z,1024.70175
2022-12-16T09:56:32.838Z,668.70588
2022-12-16T10:01:34.752Z,1044
2022-12-16T10:06:36.694Z,824
2022-12-16T10:11:38.238Z,937.54839
2022-12-16T10:16:40.313Z,891.69231
2022-12-16T10:21:42.084Z,863.40299
2022-12-16T10:26:43.883Z,891.69231
2022-12-16T10:31:45.962Z,1064
2022-12-16T10:36:47.916Z,787.83562
2022-12-16T10:41:49.422Z,863.40299
2022-12-16T10:46:51.236Z,849.88235
2022-12-16T10:51:53.095Z,1523.48718
2022-12-16T10:56:54.925Z,1044
2022-12-16T11:01:58.287Z,1608.86486
2022-12-16T11:07:00.322Z,1227.33333
2022-12-16T11:12:02.200Z,585.66667
2022-12-16T11:17:04.283Z,592.42105
2022-12-16T11:22:06.313Z,677.33333
2022-12-16T11:27:07.771Z,547.92157
2022-12-16T11:32:09.879Z,765.33333
2022-12-16T11:37:12.364Z,877.33333
2022-12-16T11:42:15.623Z,1106.26415
2022-12-16T11:47:17.809Z,765.33333
2022-12-16T11:52:35.855Z,1608.86486
2022-12-16T11:57:38.196Z,1201.14286
2022-12-16T12:02:39.964Z,1254.6383
2022-12-16T12:07:45.017Z,953.83607
2022-12-16T12:12:47.958Z,1084.74074
2022-12-16T12:17:49.911Z,1106.26415
2022-12-16T12:22:51.676Z,988.0678
2022-12-16T12:27:53.401Z,1283.13043
2022-12-16T12:32:55.364Z,1608.86486
2022-12-16T12:37:57.804Z,1254.6383
2022-12-16T12:42:59.575Z,1064
2022-12-16T12:48:01.614Z,1227.33333
2022-12-16T12:53:03.384Z,1227.33333
2022-12-16T12:58:05.457Z,1565.05263
2022-12-16T13:03:07.665Z,2408
2022-12-16T13:08:10.968Z,1810.66667
2022-12-16T13:13:12.760Z,1869
2022-12-16T13:18:14.638Z,2622.26087
2022-12-16T13:23:16.199Z,2068.13793
2022-12-16T13:28:18.400Z,2144
2022-12-16T13:33:20.214Z,2510.66667
2022-12-16T13:38:22.024Z,2408
2022-12-16T13:43:24.141Z,4050.66667
2022-12-16T13:48:26.192Z,2313.23077
2022-12-16T13:53:28.112Z,1997.33333
2022-12-16T13:58:29.930Z,1931.09677
2022-12-16T14:03:32.632Z,2144
2022-12-16T14:08:34.974Z,2068.13793
2022-12-16T14:13:36.876Z,1704
2022-12-16T14:18:43.439Z,2510.66667
2022-12-16T14:23:56.866Z,2313.23077
2022-12-16T14:28:59.379Z,3186.10526
2022-12-16T14:34:01.451Z,2144
2022-12-16T14:39:03.131Z,2622.26087
2022-12-16T14:44:04.832Z,1655.11111
2022-12-16T14:49:07.073Z,2408
2022-12-16T14:54:08.908Z,1869
2022-12-16T14:59:10.720Z,2510.66667
2022-12-16T15:04:13.739Z,2313.23077
2022-12-16T15:09:15.527Z,3024
2022-12-16T15:14:17.334Z,1655.11111
2022-12-16T15:19:19.338Z,2622.26087
2022-12-16T15:24:21.082Z,1565.05263
2022-12-16T15:29:22.798Z,1484
2022-12-16T15:34:24.797Z,1410.66667
2022-12-16T15:39:26.681Z,2144
2022-12-16T15:44:28.449Z,2144
2022-12-16T15:49:30.443Z,1755.76471
2022-12-16T15:54:32.402Z,1484
2022-12-16T15:59:34.541Z,1312.88889
2022-12-16T16:04:36.656Z,1151.84314
2022-12-16T16:09:38.640Z,754.52632
2022-12-16T16:14:40.445Z,723.74684
2022-12-16T16:19:42.519Z,863.40299
2022-12-16T16:24:44.502Z,560
2022-12-16T16:29:46.318Z,440.77419
2022-12-16T16:34:48.196Z,444.81301
2022-12-16T16:39:49.990Z,2408
2022-12-16T16:44:51.785Z,2510.66667
2022-12-16T16:49:53.595Z,1869
2022-12-16T16:54:55.347Z,1410.66667
2022-12-16T16:59:56.888Z,1283.13043
2022-12-16T17:04:58.486Z,1376.55814
2022-12-16T17:10:00.061Z,1997.33333
2022-12-16T17:15:01.730Z,1931.09677
2022-12-16T17:20:03.665Z,906.5
2022-12-16T17:25:05.254Z,205.01695
2022-12-16T17:30:06.706Z,138.93671
2022-12-16T17:35:08.511Z,138.32177
2022-12-16T17:40:10.225Z,132.3792
2022-12-16T17:45:11.735Z,200.66667
2022-12-16T17:50:13.427Z,613.56522
2022-12-16T17:55:14.932Z,723.74684
2022-12-16T18:00:16.456Z,628.44444
2022-12-16T18:05:18.178Z,723.74684
2022-12-16T18:10:19.788Z,1064
2022-12-16T18:15:24.520Z,1565.05263
2022-12-16T18:20:26.580Z,1151.84314
2022-12-16T18:25:28.212Z,1254.6383
2022-12-16T18:30:29.772Z,891.69231
2022-12-16T18:35:31.667Z,668.70588
2022-12-16T18:40:33.321Z,542.05825
2022-12-16T18:45:35.061Z,744
2022-12-16T18:50:38.217Z,953.83607
2022-12-16T18:55:40.051Z,566.22222
2022-12-16T19:00:41.876Z,613.56522
2022-12-16T19:05:43.732Z,530.66667
2022-12-16T19:10:45.520Z,536.30769
2022-12-16T19:15:47.469Z,579.05155
2022-12-16T19:20:49.656Z,560
2022-12-16T19:25:53.432Z,479.65217
2022-12-16T19:30:56.456Z,453.09091
2022-12-16T19:35:58.033Z,436.8
2022-12-16T19:40:59.769Z,321.91411
2022-12-16T19:46:01.422Z,457.33333
2022-12-16T19:51:03.349Z,429.03937
2022-12-16T19:56:04.846Z,425.25
2022-12-16T20:01:06.694Z,417.84615
2022-12-16T20:06:08.507Z,377.80282
2022-12-16T20:11:11.104Z,414.22901
2022-12-16T20:16:13.102Z,354.66667
2022-12-16T20:21:15.161Z,393.63504
2022-12-16T20:26:16.982Z,390.37681
2022-12-16T20:31:19.323Z,349.26316
2022-12-16T20:36:21.364Z,417.84615
2022-12-16T20:41:23.145Z,440.77419
2022-12-16T20:46:25.003Z,425.25
2022-12-16T20:51:27.255Z,371.77778
2022-12-16T20:56:28.847Z,387.16547
2022-12-16T21:01:30.871Z,374.76923
2022-12-16T21:06:32.830Z,290.06742
2022-12-16T21:11:34.696Z,248.9505
2022-12-16T21:16:36.744Z,282.46154
2022-12-16T21:21:39.002Z,294
2022-12-16T21:26:40.883Z,338.87179
2022-12-16T21:31:42.753Z,290.06742
2022-12-16T21:36:44.668Z,310.66667
2022-12-16T21:41:46.462Z,278.78261
2022-12-16T21:46:48.398Z,268.21053
2022-12-16T21:51:50.378Z,275.1828
2022-12-16T21:56:52.043Z,238.73684
2022-12-16T22:01:53.612Z,273.41176
2022-12-16T22:06:58.059Z,256.69036
2022-12-16T22:11:59.630Z,237.33333
2022-12-16T22:17:01.235Z,235.94313
2022-12-16T22:22:03.130Z,215.36564
2022-12-16T22:27:04.599Z,222.73303
2022-12-16T22:32:06.069Z,205.01695
2022-12-16T22:37:07.883Z,188.44444
2022-12-16T22:42:09.767Z,185.56863
2022-12-16T22:47:12.331Z,194.4065
2022-12-16T22:52:14.595Z,173.85075
2022-12-16T22:57:16.375Z,172.14815
2022-12-16T23:02:18.122Z,176.45283
2022-12-16T23:07:19.776Z,157.88889
2022-12-16T23:12:21.693Z,161.66784
2022-12-16T23:17:23.601Z,154.9589
2022-12-16T23:22:25.604Z,155.68385
2022-12-16T23:27:27.564Z,156.41379
2022-12-16T23:32:29.324Z,163.21708
2022-12-16T23:37:31.335Z,160.90141
2022-12-16T23:42:33.069Z,161.66784
2022-12-16T23:47:34.976Z,157.88889
2022-12-16T23:52:37.044Z,144
2022-12-16T23:57:38.927Z,157.88889
